Time;durP1;ratioP1;P1;durP2;ratioP2;P2;SDS_P1;SDS_P2;PMS_P1;PMS_P2;Temp;Humidity;BMP_temperature;BMP_pressure;BME280_temperature;BME280_humidity;BME280_pressure;Samples;Min_cycle;Max_cycle;Signal;HPM_P1;HPM_P2
2021/12/14 00:01:36;;;;;;;;;;;8.10;99.90;;;;;;5050672;28;20055;-43
2021/12/14 00:04:06;;;;;;;24.10;14.63;;;8.10;99.90;;;;;;5083103;28;20274;-45
2021/12/14 00:06:32;;;;;;;22.23;12.93;;;8.10;99.90;;;;;;5061782;28;20067;-44
2021/12/14 00:09:00;;;;;;;20.08;13.35;;;8.10;99.90;;;;;;5057014;28;20048;-44
2021/12/14 00:11:53;;;;;;;20.05;12.15;;;8.10;99.90;;;;;;5036060;28;20040;-44
2021/12/14 00:15:11;;;;;;;22.42;12.40;;;8.10;99.90;;;;;;5068962;28;20055;-47
2021/12/14 00:17:22;;;;;;;20.10;12.88;;;8.10;99.90;;;;;;5042090;28;20045;-44
2021/12/14 00:19:50;;;;;;;20.50;13.13;;;8.10;99.90;;;;;;5049928;28;20190;-44
2021/12/14 00:22:36;;;;;;;20.40;13.48;;;8.10;99.90;;;;;;5082280;28;20388;-44
2021/12/14 00:25:05;;;;;;;18.55;12.75;;;8.10;99.90;;;;;;5065047;28;20041;-46
2021/12/14 00:27:32;;;;;;;18.08;11.65;;;8.10;99.90;;;;;;5048738;28;20045;-45
2021/12/14 00:30:00;;;;;;;20.80;12.77;;;8.10;99.90;;;;;;5051647;28;20298;-45
2021/12/14 00:32:30;;;;;;;17.92;12.15;;;8.10;99.90;;;;;;5059554;28;20097;-45
2021/12/14 00:34:59;;;;;;;21.80;12.70;;;8.10;99.90;;;;;;5055678;28;20079;-49
2021/12/14 00:37:29;;;;;;;18.85;12.02;;;8.10;99.90;;;;;;5053634;28;20377;-45
2021/12/14 00:39:56;;;;;;;20.90;12.00;;;8.10;99.90;;;;;;5049792;28;20343;-45
2021/12/14 00:42:25;;;;;;;18.25;12.35;;;8.10;99.90;;;;;;5049403;28;20041;-45
2021/12/14 00:44:51;;;;;;;20.27;12.48;;;8.10;99.90;;;;;;5049577;28;20066;-45
2021/12/14 00:47:17;;;;;;;18.63;12.00;;;8.10;99.90;;;;;;5031387;28;20044;-46
2021/12/14 00:49:43;;;;;;;18.33;11.95;;;8.10;99.90;;;;;;5035536;28;20076;-44
2021/12/14 00:52:10;;;;;;;17.17;11.93;;;8.10;99.90;;;;;;5056145;28;20071;-44
2021/12/14 00:54:37;;;;;;;18.67;12.48;;;8.10;99.90;;;;;;5068309;28;20084;-45
2021/12/14 00:57:04;;;;;;;;;;;8.10;99.90;;;;;;5049765;28;20037;-45
2021/12/14 00:59:31;;;;;;;21.30;12.32;;;8.00;99.90;;;;;;5047743;28;19950;-45
2021/12/14 01:02:24;;;;;;;20.52;11.68;;;8.10;99.90;;;;;;5046987;28;20271;-43
2021/12/14 01:04:59;;;;;;;18.00;11.63;;;8.10;99.90;;;;;;5049032;28;20045;-45
2021/12/14 01:07:28;;;;;;;18.58;12.10;;;8.10;99.90;;;;;;5061186;28;20041;-43
2021/12/14 01:09:58;;;;;;;16.95;11.18;;;8.00;99.90;;;;;;5064794;28;20487;-46
2021/12/14 01:12:38;;;;;;;19.15;11.52;;;8.00;99.90;;;;;;5048766;28;20151;-46
2021/12/14 01:15:25;;;;;;;17.88;11.77;;;8.10;99.90;;;;;;5056106;28;20360;-43
2021/12/14 01:18:13;;;;;;;18.95;11.52;;;8.10;99.90;;;;;;5048882;28;20056;-45
2021/12/14 01:20:43;;;;;;;17.33;11.75;;;8.10;99.90;;;;;;5085770;28;20052;-44
2021/12/14 01:23:25;;;;;;;20.40;12.93;;;8.10;99.90;;;;;;5053221;28;20075;-47
2021/12/14 01:25:52;;;;;;;20.15;12.07;;;8.00;99.90;;;;;;5030566;28;20506;-44
2021/12/14 01:28:26;;;;;;;20.15;12.35;;;8.00;99.90;;;;;;5047478;28;20056;-44
2021/12/14 01:31:12;;;;;;;18.35;12.23;;;8.00;99.90;;;;;;5059184;28;20095;-45
2021/12/14 01:33:44;;;;;;;16.52;11.70;;;8.00;99.90;;;;;;5047119;28;20049;-46
2021/12/14 01:36:25;;;;;;;18.70;12.63;;;8.00;99.90;;;;;;5047186;28;20041;-44
2021/12/14 01:42:01;;;;;;;17.90;11.65;;;8.00;99.90;;;;;;5085870;28;20098;-44
2021/12/14 01:44:30;;;;;;;17.83;12.18;;;8.00;99.90;;;;;;5054532;28;20186;-46
2021/12/14 01:47:05;;;;;;;19.52;12.15;;;8.00;99.90;;;;;;5048515;28;20072;-45
2021/12/14 01:49:32;;;;;;;20.23;12.95;;;8.00;99.90;;;;;;5051737;28;20109;-46
2021/12/14 01:52:08;;;;;;;19.23;12.73;;;8.00;99.90;;;;;;5030774;28;20511;-44
2021/12/14 01:54:42;;;;;;;19.38;13.15;;;8.00;99.90;;;;;;5050143;28;20044;-46
2021/12/14 01:57:13;;;;;;;22.90;12.73;;;8.00;99.90;;;;;;5044004;28;20571;-44
2021/12/14 01:59:42;;;;;;;19.55;13.40;;;8.00;99.90;;;;;;5058477;28;20042;-45
2021/12/14 02:02:28;;;;;;;21.77;13.27;;;8.00;99.90;;;;;;5049783;28;20052;-45
2021/12/14 02:04:56;;;;;;;20.40;13.43;;;8.00;99.90;;;;;;5067158;28;20044;-45
2021/12/14 02:07:25;;;;;;;20.15;13.30;;;8.00;99.90;;;;;;5068719;28;20044;-44
2021/12/14 02:09:59;;;;;;;19.58;13.35;;;8.00;99.90;;;;;;5049824;28;20040;-43
2021/12/14 02:12:30;;;;;;;20.15;14.32;;;8.00;99.90;;;;;;5058132;28;20049;-44
2021/12/14 02:15:19;;;;;;;21.23;14.43;;;8.00;99.90;;;;;;5060071;28;20131;-45
2021/12/14 02:17:47;;;;;;;21.27;13.48;;;8.00;99.90;;;;;;5063167;28;20047;-44
2021/12/14 02:20:21;;;;;;;22.40;14.88;;;7.70;99.90;;;;;;5069079;28;20421;-46
2021/12/14 02:22:47;;;;;;;22.83;14.75;;;8.00;99.90;;;;;;5054028;28;20072;-44
2021/12/14 02:25:14;;;;;;;23.45;15.43;;;8.00;99.90;;;;;;5070355;28;20536;-45
2021/12/14 02:27:44;;;;;;;24.55;15.88;;;8.00;99.90;;;;;;5053954;28;20040;-43
2021/12/14 02:30:16;;;;;;;28.52;16.55;;;8.00;99.90;;;;;;5053218;28;20040;-45
2021/12/14 02:32:43;;;;;;;21.80;14.55;;;8.00;99.90;;;;;;5066929;28;20127;-44
2021/12/14 02:35:13;;;;;;;27.58;15.57;;;8.00;99.90;;;;;;5037960;28;20049;-44
2021/12/14 02:37:47;;;;;;;28.90;17.65;;;8.00;99.90;;;;;;5065277;28;20032;-44
2021/12/14 02:40:53;;;;;;;30.30;16.75;;;8.00;99.90;;;;;;5044120;28;20053;-45
2021/12/14 02:43:22;;;;;;;25.70;17.15;;;8.00;99.90;;;;;;5055995;28;20479;-45
2021/12/14 02:45:49;;;;;;;26.67;16.52;;;8.00;99.90;;;;;;5054713;28;20041;-45
2021/12/14 02:48:15;;;;;;;28.65;18.23;;;8.00;99.90;;;;;;5069988;28;20067;-45
2021/12/14 02:50:43;;;;;;;28.33;18.23;;;7.90;99.90;;;;;;5035239;28;20119;-44
2021/12/14 02:53:12;;;;;;;27.05;17.58;;;8.00;99.90;;;;;;5060001;28;20379;-44
2021/12/14 02:55:39;;;;;;;24.45;15.90;;;7.90;99.90;;;;;;5063849;28;20143;-45
2021/12/14 02:58:07;;;;;;;31.15;18.02;;;7.90;99.90;;;;;;5063813;28;20124;-47
2021/12/14 03:00:48;;;;;;;31.63;18.20;;;7.90;99.90;;;;;;5067912;28;20123;-43
2021/12/14 03:03:16;;;;;;;27.27;17.33;;;7.90;99.90;;;;;;5070835;28;20114;-45
2021/12/14 03:05:43;;;;;;;29.20;17.95;;;7.90;99.90;;;;;;5068201;28;20040;-43
2021/12/14 03:08:14;;;;;;;31.15;17.60;;;7.90;99.90;;;;;;5071106;28;20033;-44
2021/12/14 03:10:57;;;;;;;27.10;16.90;;;7.90;99.90;;;;;;5064112;28;20049;-44
2021/12/14 03:13:28;;;;;;;29.55;18.58;;;7.90;99.90;;;;;;5070034;28;20091;-45
2021/12/14 03:15:57;;;;;;;26.48;17.90;;;7.90;99.90;;;;;;5065491;28;20068;-44
2021/12/14 03:18:29;;;;;;;28.98;18.60;;;7.80;99.90;;;;;;5037077;28;20053;-44
2021/12/14 03:21:01;;;;;;;29.02;17.23;;;7.90;99.90;;;;;;5056525;28;20083;-44
2021/12/14 03:23:33;;;;;;;28.95;18.08;;;7.90;99.90;;;;;;5069219;28;20043;-45
2021/12/14 03:26:02;;;;;;;30.25;18.50;;;7.90;99.90;;;;;;5068377;28;20068;-44
2021/12/14 03:28:31;;;;;;;29.38;17.63;;;7.90;99.90;;;;;;5049896;28;20113;-46
2021/12/14 03:31:00;;;;;;;29.40;18.42;;;7.90;99.90;;;;;;5057662;28;20097;-45
2021/12/14 03:33:30;;;;;;;29.45;17.33;;;7.90;99.90;;;;;;5050813;28;20130;-44
2021/12/14 03:36:13;;;;;;;29.23;18.27;;;7.90;99.90;;;;;;5054726;28;20048;-48
2021/12/14 03:38:48;;;;;;;31.20;18.50;;;7.80;99.90;;;;;;5052501;28;20044;-44
2021/12/14 03:41:28;;;;;;;30.17;18.08;;;7.80;99.90;;;;;;5063646;28;20057;-43
2021/12/14 03:44:06;;;;;;;27.65;17.48;;;7.80;99.90;;;;;;5050439;28;20056;-45
2021/12/14 03:46:44;;;;;;;31.17;18.90;;;7.80;99.90;;;;;;5048709;28;20056;-43
2021/12/14 03:49:10;;;;;;;33.13;19.40;;;7.80;99.90;;;;;;5051796;28;20084;-45
2021/12/14 03:51:38;;;;;;;32.33;19.23;;;7.80;99.90;;;;;;5059371;28;20396;-44
2021/12/14 03:54:04;;;;;;;;;;;7.70;99.90;;;;;;5052093;28;20120;-43
2021/12/14 03:56:30;;;;;;;30.80;18.63;;;7.80;99.90;;;;;;5054529;28;20007;-44
2021/12/14 03:58:57;;;;;;;28.58;17.65;;;7.80;99.90;;;;;;5051973;28;20174;-44
2021/12/14 04:01:38;;;;;;;30.88;19.40;;;7.80;99.90;;;;;;5049617;28;20490;-44
2021/12/14 04:04:15;;;;;;;31.48;19.60;;;7.80;99.90;;;;;;5055439;28;20065;-44
2021/12/14 04:06:43;;;;;;;27.38;17.83;;;7.80;99.90;;;;;;5060830;28;20044;-46
2021/12/14 04:09:12;;;;;;;32.63;20.23;;;7.80;99.90;;;;;;5050029;28;20123;-47
2021/12/14 04:11:38;;;;;;;33.55;19.20;;;7.80;99.90;;;;;;5044891;28;20127;-48
2021/12/14 04:14:07;;;;;;;29.25;18.33;;;7.80;99.90;;;;;;5070289;28;20391;-48
2021/12/14 04:16:35;;;;;;;33.33;18.80;;;7.80;99.90;;;;;;5057843;28;20548;-48
2021/12/14 04:19:10;;;;;;;32.58;20.38;;;7.80;99.90;;;;;;5031798;28;20036;-48
2021/12/14 04:21:39;;;;;;;34.97;20.52;;;7.80;99.90;;;;;;5048290;28;20446;-48
2021/12/14 04:24:08;;;;;;;36.08;20.25;;;7.90;99.90;;;;;;5049442;28;20091;-48
2021/12/14 04:26:36;;;;;;;37.03;20.85;;;7.90;99.90;;;;;;5049046;28;20049;-48
2021/12/14 04:29:04;;;;;;;32.15;19.40;;;7.90;99.90;;;;;;5031635;28;20080;-47
2021/12/14 04:31:33;;;;;;;;;;;7.80;99.90;;;;;;5049758;28;20375;-50
2021/12/14 04:33:59;;;;;;;33.50;18.23;;;7.80;99.90;;;;;;5047779;28;20378;-49
2021/12/14 04:36:27;;;;;;;34.45;19.95;;;7.90;99.90;;;;;;5039693;28;20033;-51
2021/12/14 04:39:00;;;;;;;36.95;20.23;;;7.90;99.90;;;;;;5067878;28;20133;-48
2021/12/14 04:52:41;;;;;;;35.80;20.52;;;7.90;99.90;;;;;;5049107;28;20088;-47
2021/12/14 04:55:10;;;;;;;36.53;21.23;;;7.90;99.90;;;;;;5056877;28;20489;-48
2021/12/14 04:57:44;;;;;;;38.28;21.35;;;7.90;99.90;;;;;;5057926;28;20341;-47
2021/12/14 05:00:29;;;;;;;38.28;20.17;;;7.90;99.90;;;;;;5047452;28;20085;-48
2021/12/14 05:02:57;;;;;;;36.22;20.92;;;7.90;99.90;;;;;;5047435;28;20053;-48
2021/12/14 05:05:30;;;;;;;33.15;19.88;;;7.90;99.90;;;;;;5053684;28;20551;-49
2021/12/14 05:10:43;;;;;;;40.88;22.35;;;7.90;99.90;;;;;;5066488;28;20139;-47
2021/12/14 05:13:10;;;;;;;38.97;21.13;;;7.90;99.90;;;;;;5067327;28;20053;-48
2021/12/14 05:15:38;;;;;;;35.13;22.05;;;7.90;99.90;;;;;;5062241;28;20047;-47
2021/12/14 05:18:13;;;;;;;39.65;23.73;;;7.90;99.90;;;;;;5054941;28;20422;-47
2021/12/14 05:20:48;;;;;;;39.10;23.08;;;7.90;99.90;;;;;;5057047;28;20450;-48
2021/12/14 05:23:30;;;;;;;38.70;22.90;;;7.90;99.90;;;;;;5063557;28;20051;-48
2021/12/14 05:25:57;;;;;;;36.88;20.95;;;7.90;99.90;;;;;;5047095;28;20455;-49
2021/12/14 05:28:26;;;;;;;36.25;22.50;;;7.90;99.90;;;;;;5048506;28;20162;-48
2021/12/14 05:30:56;;;;;;;39.63;22.33;;;7.90;99.90;;;;;;5053619;28;20052;-47
2021/12/14 05:33:32;;;;;;;37.00;22.02;;;7.90;99.90;;;;;;5068595;28;20097;-49
2021/12/14 05:36:05;;;;;;;36.03;21.08;;;7.90;99.90;;;;;;5057853;28;20041;-48
2021/12/14 05:38:52;;;;;;;34.70;20.90;;;7.90;99.90;;;;;;5056842;28;20040;-47
2021/12/14 05:44:11;;;;;;;38.28;22.08;;;7.90;99.90;;;;;;5048327;28;20096;-48
2021/12/14 05:46:38;;;;;;;40.97;22.27;;;7.90;99.90;;;;;;5080590;28;20041;-47
2021/12/14 05:49:11;;;;;;;39.20;21.80;;;7.90;99.90;;;;;;5051435;28;20095;-48
2021/12/14 05:51:37;;;;;;;37.38;22.25;;;7.90;99.90;;;;;;5052036;28;20451;-48
2021/12/14 05:54:04;;;;;;;42.83;23.80;;;7.90;99.90;;;;;;5050575;28;20145;-48
2021/12/14 05:56:31;;;;;;;38.90;22.27;;;7.90;99.90;;;;;;5059350;28;20102;-48
2021/12/14 05:58:58;;;;;;;37.22;21.75;;;7.90;99.90;;;;;;5058676;28;20041;-48
2021/12/14 06:01:30;;;;;;;36.15;21.85;;;7.90;99.90;;;;;;5077611;28;20060;-47
2021/12/14 06:04:05;;;;;;;37.95;23.25;;;7.90;99.90;;;;;;5059031;28;20048;-48
2021/12/14 06:06:53;;;;;;;38.05;23.70;;;7.90;99.90;;;;;;5052322;28;20056;-51
2021/12/14 06:09:24;;;;;;;38.63;23.05;;;7.90;99.90;;;;;;5052177;28;20247;-47
2021/12/14 06:11:56;;;;;;;42.15;23.77;;;7.90;99.90;;;;;;5050892;28;20096;-50
2021/12/14 06:14:25;;;;;;;42.33;24.10;;;7.90;99.90;;;;;;5054971;28;20056;-48
2021/12/14 06:16:55;;;;;;;42.30;23.90;;;7.90;99.90;;;;;;5055730;28;20275;-49
2021/12/14 06:19:25;;;;;;;43.95;24.10;;;7.90;99.90;;;;;;5050165;28;20047;-49
2021/12/14 06:22:00;;;;;;;42.10;24.08;;;7.90;99.90;;;;;;5050685;28;20129;-47
2021/12/14 06:24:29;;;;;;;42.72;23.25;;;7.90;99.90;;;;;;5050420;28;20086;-48
2021/12/14 06:26:57;;;;;;;43.28;22.80;;;7.90;99.90;;;;;;5063972;28;20128;-47
2021/12/14 06:29:42;;;;;;;40.50;23.63;;;7.90;99.90;;;;;;5050033;28;20053;-47
2021/12/14 06:32:13;;;;;;;43.88;24.27;;;7.90;99.90;;;;;;5051192;28;20045;-47
2021/12/14 06:34:47;;;;;;;41.47;24.55;;;7.90;99.90;;;;;;5071489;28;20052;-47
2021/12/14 06:37:52;;;;;;;41.70;24.50;;;7.90;99.90;;;;;;5067507;28;20095;-48
2021/12/14 06:40:16;;;;;;;42.40;24.33;;;7.90;99.90;;;;;;5059027;28;20057;-47
2021/12/14 06:43:03;;;;;;;42.15;24.65;;;7.90;99.90;;;;;;5054133;28;20045;-47
2021/12/14 06:45:55;;;;;;;42.47;24.90;;;7.90;99.90;;;;;;5048883;28;20098;-47
2021/12/14 06:48:27;;;;;;;44.92;24.50;;;7.90;99.90;;;;;;5048205;28;20056;-49
2021/12/14 06:51:00;;;;;;;46.10;24.88;;;7.90;99.90;;;;;;5050677;28;20701;-48
2021/12/14 06:53:27;;;;;;;45.47;25.08;;;7.90;99.90;;;;;;5052884;28;20591;-47
2021/12/14 06:55:56;;;;;;;43.30;24.02;;;8.00;99.90;;;;;;5063590;28;20045;-47
2021/12/14 06:58:28;;;;;;;48.38;25.25;;;7.90;99.90;;;;;;5048783;28;20044;-47
2021/12/14 07:01:06;;;;;;;44.35;25.40;;;7.90;99.90;;;;;;5048162;28;20041;-48
2021/12/14 07:03:46;;;;;;;46.33;24.98;;;8.00;99.90;;;;;;5051328;28;20086;-47
2021/12/14 07:06:31;;;;;;;42.92;24.80;;;8.00;99.90;;;;;;5042751;28;20267;-49
2021/12/14 07:09:06;;;;;;;46.72;25.58;;;8.00;99.90;;;;;;5065387;28;20191;-48
2021/12/14 07:11:33;;;;;;;43.67;25.17;;;7.90;99.90;;;;;;5066003;28;20371;-50
2021/12/14 07:13:59;;;;;;;49.92;25.67;;;8.00;99.90;;;;;;5055020;28;20154;-47
2021/12/14 07:16:31;;;;;;;49.17;25.20;;;8.00;99.90;;;;;;5063783;28;20490;-48
2021/12/14 07:19:02;;;;;;;45.33;25.13;;;7.90;99.90;;;;;;5066323;28;20115;-47
2021/12/14 07:21:44;;;;;;;47.20;24.75;;;8.00;99.90;;;;;;5065383;28;20047;-47
2021/12/14 07:24:34;;;;;;;42.83;23.52;;;7.90;99.90;;;;;;5064378;28;20045;-47
2021/12/14 07:27:24;;;;;;;47.50;25.30;;;7.90;99.90;;;;;;5063875;28;20040;-48
2021/12/14 07:29:51;;;;;;;48.08;26.17;;;7.90;99.90;;;;;;5062819;28;20048;-47
2021/12/14 07:32:37;;;;;;;45.92;25.60;;;8.00;99.90;;;;;;5061272;28;20253;-49
2021/12/14 07:35:31;;;;;;;43.70;24.48;;;8.00;99.90;;;;;;5065491;28;20127;-48
2021/12/14 07:38:04;;;;;;;48.10;25.05;;;8.00;99.90;;;;;;5061303;28;20117;-48
2021/12/14 07:40:40;;;;;;;46.58;25.90;;;8.00;99.90;;;;;;5067052;28;20072;-49
2021/12/14 07:43:23;;;;;;;54.08;26.50;;;8.00;99.90;;;;;;5051114;28;20116;-48
2021/12/14 07:45:51;;;;;;;49.13;25.98;;;8.00;99.90;;;;;;5068428;28;20398;-47
2021/12/14 07:48:22;;;;;;;52.83;26.95;;;8.00;99.90;;;;;;5059624;28;20865;-48
2021/12/14 07:50:54;;;;;;;57.85;27.10;;;8.00;99.90;;;;;;5070470;28;20040;-49
2021/12/14 07:53:41;;;;;;;56.03;27.70;;;8.00;99.90;;;;;;5068615;28;20044;-47
2021/12/14 07:56:21;;;;;;;48.72;26.67;;;8.00;99.90;;;;;;5069433;28;20483;-47
2021/12/14 07:58:48;;;;;;;47.75;26.60;;;8.00;99.90;;;;;;5038559;28;20051;-47
2021/12/14 08:01:15;;;;;;;55.20;26.70;;;8.00;99.90;;;;;;5068335;28;20137;-49
2021/12/14 08:03:42;;;;;;;58.95;28.25;;;8.00;99.90;;;;;;5068211;28;20063;-47
2021/12/14 08:06:11;;;;;;;61.85;28.27;;;8.00;99.90;;;;;;5068298;28;20045;-47
2021/12/14 08:08:44;;;;;;;55.38;28.98;;;8.00;99.90;;;;;;5056523;28;20036;-50
2021/12/14 08:13:52;;;;;;;55.00;27.25;;;8.00;99.90;;;;;;5059338;28;20055;-49
2021/12/14 08:16:19;;;;;;;56.42;26.98;;;8.00;99.90;;;;;;5056595;28;20458;-48
2021/12/14 08:18:45;;;;;;;57.22;28.55;;;8.10;99.90;;;;;;5041393;28;20040;-48
2021/12/14 08:21:17;;;;;;;55.95;28.42;;;8.10;99.90;;;;;;5058842;28;20449;-49
2021/12/14 08:23:58;;;;;;;59.47;28.48;;;8.10;99.90;;;;;;5066265;28;20037;-47
2021/12/14 08:26:41;;;;;;;58.30;29.67;;;8.10;99.90;;;;;;5064430;28;20577;-48
2021/12/14 08:29:20;;;;;;;60.05;30.50;;;8.10;99.90;;;;;;5049442;28;20117;-48
2021/12/14 08:31:51;;;;;;;61.33;28.95;;;8.10;99.90;;;;;;5094517;28;20567;-48
2021/12/14 08:34:30;;;;;;;62.58;29.52;;;8.10;99.90;;;;;;5064268;28;20418;-48
2021/12/14 08:37:21;;;;;;;58.60;27.42;;;8.10;99.90;;;;;;5065365;28;20085;-48
2021/12/14 08:40:02;;;;;;;63.72;30.42;;;8.10;99.90;;;;;;5046493;28;20132;-47
2021/12/14 08:42:43;;;;;;;60.88;28.73;;;8.10;99.90;;;;;;5065924;28;20116;-47
2021/12/14 08:45:26;;;;;;;64.78;28.45;;;8.20;99.90;;;;;;5065305;28;20036;-47
2021/12/14 08:47:54;;;;;;;49.75;26.70;;;8.20;99.90;;;;;;5063754;28;20417;-48
2021/12/14 08:50:20;;;;;;;60.00;28.58;;;8.20;99.90;;;;;;5066947;28;20051;-47
2021/12/14 08:52:46;;;;;;;55.85;28.20;;;8.20;99.90;;;;;;5061093;28;20386;-48
2021/12/14 08:55:15;;;;;;;56.53;28.23;;;8.20;99.90;;;;;;5042666;28;20036;-47
2021/12/14 08:57:41;;;;;;;66.72;28.90;;;8.20;99.90;;;;;;5046490;28;20406;-50
2021/12/14 09:00:19;;;;;;;66.63;31.23;;;8.20;99.90;;;;;;5065022;28;20044;-47
2021/12/14 09:02:46;;;;;;;71.45;31.10;;;8.20;99.90;;;;;;5062264;28;20071;-48
2021/12/14 09:05:27;;;;;;;57.33;28.58;;;8.20;99.90;;;;;;5053963;28;20123;-48
2021/12/14 09:07:55;;;;;;;57.95;29.30;;;8.20;99.90;;;;;;5064178;28;20056;-48
2021/12/14 09:10:26;;;;;;;63.00;30.52;;;8.20;99.90;;;;;;5061207;28;20071;-49
2021/12/14 09:12:59;;;;;;;63.38;29.42;;;8.20;99.90;;;;;;5062887;28;20547;-47
2021/12/14 09:15:37;;;;;;;56.22;28.88;;;8.20;99.90;;;;;;5047812;28;20464;-47
2021/12/14 09:18:04;;;;;;;60.05;29.30;;;8.20;99.90;;;;;;5054433;28;20483;-48
2021/12/14 09:21:05;;;;;;;59.93;28.87;;;8.20;99.90;;;;;;5046963;28;20044;-48
2021/12/14 09:23:38;;;;;;;65.55;30.58;;;8.30;99.90;;;;;;5054424;28;20360;-47
2021/12/14 09:26:12;;;;;;;56.75;28.85;;;8.30;99.90;;;;;;5065531;28;20028;-47
2021/12/14 09:28:39;;;;;;;68.28;29.55;;;8.30;99.90;;;;;;5064514;28;20070;-47
2021/12/14 09:31:13;;;;;;;62.58;30.33;;;8.30;99.90;;;;;;5031224;28;20055;-48
2021/12/14 09:33:40;;;;;;;61.63;28.63;;;8.40;99.90;;;;;;5065690;28;20076;-48
2021/12/14 09:36:12;;;;;;;59.08;28.15;;;8.30;99.90;;;;;;5062096;28;20040;-48
2021/12/14 09:38:47;;;;;;;58.97;29.50;;;8.40;99.90;;;;;;5040664;28;20114;-46
2021/12/14 09:41:18;;;;;;;58.80;28.80;;;8.40;99.90;;;;;;5049938;28;20076;-47
2021/12/14 09:43:47;;;;;;;60.17;28.40;;;8.40;99.90;;;;;;5048251;28;20057;-47
2021/12/14 09:46:14;;;;;;;64.00;29.38;;;8.50;99.90;;;;;;5036492;28;20124;-47
2021/12/14 09:48:44;;;;;;;60.47;30.25;;;8.50;99.90;;;;;;5054958;28;20440;-47
2021/12/14 09:51:16;;;;;;;63.58;29.33;;;8.50;99.90;;;;;;5030349;28;20071;-47
2021/12/14 09:53:45;;;;;;;63.40;30.20;;;8.50;99.90;;;;;;5056087;28;20533;-48
2021/12/14 09:56:14;;;;;;;67.47;31.23;;;8.60;99.90;;;;;;5066530;28;20139;-48
2021/12/14 09:58:45;;;;;;;63.67;29.63;;;8.60;99.90;;;;;;5092213;28;20258;-48
2021/12/14 10:01:20;;;;;;;58.78;28.25;;;8.70;99.90;;;;;;5065410;28;20373;-47
2021/12/14 10:03:52;;;;;;;67.25;29.20;;;8.70;99.90;;;;;;5057631;28;20119;-48
2021/12/14 10:06:24;;;;;;;54.75;28.25;;;8.70;99.90;;;;;;5056699;28;20061;-49
2021/12/14 10:08:58;;;;;;;54.35;28.55;;;8.70;99.90;;;;;;5049450;28;20080;-47
2021/12/14 10:11:41;;;;;;;54.50;28.38;;;8.70;99.90;;;;;;5040942;28;20174;-47
2021/12/14 10:14:11;;;;;;;54.65;28.70;;;8.70;99.90;;;;;;5049238;28;20131;-49
2021/12/14 10:16:37;;;;;;;58.20;29.40;;;8.70;99.90;;;;;;5052016;28;20044;-51
2021/12/14 10:19:12;;;;;;;50.65;26.23;;;8.70;99.90;;;;;;5030130;28;20470;-50
2021/12/14 10:21:42;;;;;;;52.72;26.33;;;8.70;99.90;;;;;;5049427;28;20044;-47
2021/12/14 10:24:09;;;;;;;48.13;26.25;;;8.80;99.90;;;;;;5065275;28;20048;-50
2021/12/14 10:26:43;;;;;;;47.38;26.67;;;8.80;99.90;;;;;;5054548;28;20037;-50
2021/12/14 10:29:09;;;;;;;46.50;25.33;;;8.80;99.90;;;;;;5067687;28;20099;-47
2021/12/14 10:31:45;;;;;;;49.15;26.20;;;8.80;99.90;;;;;;5047936;28;20501;-47
2021/12/14 10:34:18;;;;;;;47.63;25.02;;;8.80;99.90;;;;;;5053393;28;20040;-48
2021/12/14 10:36:51;;;;;;;49.40;25.27;;;8.80;99.90;;;;;;5062989;28;20226;-48
2021/12/14 10:45:07;;;;;;;51.95;25.08;;;8.80;99.90;;;;;;5051376;28;20037;-48
2021/12/14 10:47:33;;;;;;;49.58;25.88;;;8.80;99.90;;;;;;5069145;28;20044;-47
2021/12/14 10:50:04;;;;;;;46.35;24.73;;;8.80;99.90;;;;;;5053081;28;20078;-48
2021/12/14 10:52:31;;;;;;;50.38;24.92;;;8.80;99.90;;;;;;5071290;28;20042;-48
2021/12/14 10:55:05;;;;;;;48.65;25.40;;;8.80;99.90;;;;;;5060542;28;20140;-48
2021/12/14 10:57:33;;;;;;;45.92;24.02;;;8.90;99.90;;;;;;5069251;28;20048;-47
2021/12/14 11:00:00;;;;;;;46.55;24.50;;;8.80;99.90;;;;;;5069779;28;20044;-48
2021/12/14 11:02:27;;;;;;;50.70;25.92;;;8.90;99.90;;;;;;5068933;28;20055;-47
2021/12/14 11:04:58;;;;;;;45.28;24.80;;;8.90;99.90;;;;;;5070851;28;20048;-49
2021/12/14 11:07:41;;;;;;;45.38;23.55;;;8.90;99.90;;;;;;5069765;28;20326;-49
2021/12/14 11:10:28;;;;;;;46.80;24.67;;;8.90;99.90;;;;;;5057230;28;20055;-48
2021/12/14 11:13:00;;;;;;;46.17;24.42;;;9.00;99.90;;;;;;5067890;28;20416;-48
2021/12/14 11:15:42;;;;;;;44.80;24.27;;;9.00;99.90;;;;;;5065976;28;20467;-48
2021/12/14 11:18:14;;;;;;;50.20;24.45;;;8.90;99.90;;;;;;5067716;28;20087;-49
2021/12/14 11:21:05;;;;;;;48.42;24.98;;;9.00;99.90;;;;;;5070459;28;20048;-48
2021/12/14 11:23:40;;;;;;;48.03;24.77;;;9.00;99.90;;;;;;5061719;28;20051;-47
2021/12/14 11:26:15;;;;;;;51.50;25.00;;;8.90;99.90;;;;;;5062370;28;20047;-49
2021/12/14 11:28:51;;;;;;;44.67;24.25;;;8.90;99.90;;;;;;5069219;28;20040;-47
2021/12/14 11:31:31;;;;;;;44.72;23.60;;;9.00;99.90;;;;;;5054473;28;20045;-47
2021/12/14 11:33:59;;;;;;;44.45;22.35;;;8.90;99.90;;;;;;5059303;28;20098;-47
2021/12/14 11:36:31;;;;;;;47.08;24.70;;;9.00;99.90;;;;;;5083959;28;20041;-50
2021/12/14 11:39:09;;;;;;;45.63;22.63;;;9.00;99.90;;;;;;5067284;28;20036;-52
2021/12/14 11:42:03;;;;;;;45.07;23.53;;;9.00;99.90;;;;;;5062417;28;20069;-48
2021/12/14 11:44:39;;;;;;;43.72;23.30;;;9.00;99.90;;;;;;5062988;28;20080;-47
2021/12/14 11:50:12;;;;;;;46.53;23.23;;;8.90;99.90;;;;;;5069840;28;20048;-49
2021/12/14 11:53:00;;;;;;;45.10;23.52;;;9.00;99.90;;;;;;5069701;28;20048;-48
2021/12/14 11:55:51;;;;;;;43.90;21.02;;;9.00;99.90;;;;;;5068869;28;20037;-48
2021/12/14 11:58:33;;;;;;;44.55;23.40;;;9.00;99.90;;;;;;5057210;28;20045;-48
2021/12/14 12:01:06;;;;;;;39.03;20.55;;;9.00;99.90;;;;;;5067974;28;20070;-49
2021/12/14 12:03:37;;;;;;;50.22;23.52;;;8.90;99.90;;;;;;5065540;28;20056;-49
2021/12/14 12:06:09;;;;;;;41.75;21.77;;;9.00;99.90;;;;;;5068908;28;20209;-52
2021/12/14 12:11:48;;;;;;;44.88;23.00;;;9.00;99.90;;;;;;5069504;28;20036;-50
2021/12/14 12:14:21;;;;;;;42.72;20.48;;;9.00;99.90;;;;;;5062858;28;20043;-49
2021/12/14 12:16:48;;;;;;;37.67;19.50;;;9.00;99.90;;;;;;5066321;28;20051;-49
2021/12/14 12:19:18;;;;;;;37.92;19.90;;;9.00;99.90;;;;;;5048263;28;20083;-48
2021/12/14 12:21:45;;;;;;;36.00;19.05;;;9.00;99.90;;;;;;5052871;28;20067;-49
2021/12/14 12:24:39;;;;;;;38.83;20.40;;;9.00;99.90;;;;;;5058882;28;20043;-47
2021/12/14 12:27:29;;;;;;;37.67;19.00;;;9.00;99.90;;;;;;5048110;28;20061;-51
2021/12/14 12:30:15;;;;;;;33.92;18.67;;;9.10;99.90;;;;;;5047479;28;20136;-47
2021/12/14 12:32:42;;;;;;;34.90;17.08;;;9.10;99.90;;;;;;5048993;28;20056;-47
2021/12/14 12:35:26;;;;;;;28.77;16.42;;;9.10;99.90;;;;;;5049618;28;20131;-48
2021/12/14 12:37:54;;;;;;;30.67;15.57;;;9.10;99.90;;;;;;5053992;28;20053;-48
2021/12/14 12:40:37;;;;;;;30.85;16.30;;;9.20;99.90;;;;;;5056964;28;20045;-48
2021/12/14 12:43:30;;;;;;;32.53;16.38;;;9.20;99.90;;;;;;5047744;28;20473;-47
2021/12/14 12:46:14;;;;;;;32.38;16.58;;;9.20;99.90;;;;;;5048734;28;20083;-49
2021/12/14 12:48:51;;;;;;;30.83;15.98;;;9.20;99.90;;;;;;5047412;28;20037;-48
2021/12/14 12:51:59;;;;;;;29.90;14.57;;;9.10;99.90;;;;;;5048914;28;20048;-47
2021/12/14 12:54:44;;;;;;;25.80;14.48;;;9.20;99.90;;;;;;5023475;28;20045;-52
2021/12/14 12:57:36;;;;;;;32.50;15.93;;;9.20;99.90;;;;;;5047241;28;20055;-49
2021/12/14 13:00:15;;;;;;;26.67;13.65;;;9.20;99.90;;;;;;5047122;28;20079;-48
2021/12/14 13:02:47;;;;;;;28.88;13.80;;;9.20;99.90;;;;;;5047078;28;20410;-48
2021/12/14 13:05:26;;;;;;;23.95;12.65;;;9.20;99.90;;;;;;5048962;28;20053;-47
2021/12/14 13:08:21;;;;;;;20.50;11.52;;;9.20;99.90;;;;;;5041272;28;20048;-48
2021/12/14 13:11:09;;;;;;;19.10;11.52;;;9.20;99.90;;;;;;5063589;28;20045;-50
2021/12/14 13:13:50;;;;;;;;;;;9.20;99.90;;;;;;5086052;28;20052;-46
2021/12/14 13:16:31;;;;;;;23.90;11.50;;;9.20;99.90;;;;;;5080595;28;20398;-49
2021/12/14 13:19:02;;;;;;;21.25;11.27;;;9.20;99.90;;;;;;5080462;28;20041;-47
2021/12/14 13:21:53;;;;;;;24.67;12.32;;;9.20;99.90;;;;;;5046868;28;20045;-47
2021/12/14 13:24:22;;;;;;;20.92;11.23;;;9.20;99.90;;;;;;5046523;28;20159;-49
2021/12/14 13:26:59;;;;;;;23.63;12.15;;;9.20;99.90;;;;;;5048418;28;20076;-47
2021/12/14 13:29:46;;;;;;;24.30;12.23;;;9.20;99.90;;;;;;5046896;28;20048;-51
2021/12/14 13:32:29;;;;;;;26.52;12.35;;;9.20;99.90;;;;;;5046582;28;20114;-47
2021/12/14 13:35:00;;;;;;;23.58;11.82;;;9.20;99.90;;;;;;5048268;28;20495;-50
2021/12/14 13:37:42;;;;;;;21.95;12.10;;;9.20;99.90;;;;;;5053054;28;20036;-48
2021/12/14 13:40:19;;;;;;;23.55;11.43;;;9.20;99.90;;;;;;5058020;28;20040;-48
2021/12/14 13:42:58;;;;;;;22.27;11.88;;;9.20;99.90;;;;;;5048458;28;20048;-47
2021/12/14 13:45:34;;;;;;;25.05;13.05;;;9.20;99.90;;;;;;5061268;28;20158;-51
2021/12/14 13:48:02;;;;;;;26.02;13.88;;;9.30;99.90;;;;;;5064380;28;20041;-47